sensor_id;sensor_type;location;lat;lon;timestamp;P1;durP1;ratioP1;P2;durP2;ratioP2
15342;SDS011;7771;48.478;8.936;2023-05-03T00:02:15;18.03;;;9.30;;
15342;SDS011;7771;48.478;8.936;2023-05-03T00:04:42;16.73;;;8.93;;
15342;SDS011;7771;48.478;8.936;2023-05-03T00:07:09;16.40;;;9.00;;
15342;SDS011;7771;48.478;8.936;2023-05-03T00:09:37;12.33;;;7.40;;
15342;SDS011;7771;48.478;8.936;2023-05-03T00:12:04;12.47;;;7.10;;
15342;SDS011;7771;48.478;8.936;2023-05-03T00:14:32;9.20;;;5.27;;
15342;SDS011;7771;48.478;8.936;2023-05-03T00:16:59;13.33;;;6.20;;
15342;SDS011;7771;48.478;8.936;2023-05-03T00:19:26;8.77;;;6.00;;
15342;SDS011;7771;48.478;8.936;2023-05-03T00:21:53;9.20;;;5.40;;
15342;SDS011;7771;48.478;8.936;2023-05-03T00:24:19;11.00;;;6.20;;
15342;SDS011;7771;48.478;8.936;2023-05-03T00:26:47;9.90;;;6.83;;
15342;SDS011;7771;48.478;8.936;2023-05-03T00:29:15;8.63;;;5.77;;
15342;SDS011;7771;48.478;8.936;2023-05-03T00:31:43;8.97;;;5.23;;
15342;SDS011;7771;48.478;8.936;2023-05-03T00:34:09;17.60;;;5.50;;
15342;SDS011;7771;48.478;8.936;2023-05-03T00:36:36;7.53;;;5.50;;
15342;SDS011;7771;48.478;8.936;2023-05-03T00:39:02;8.07;;;5.80;;
15342;SDS011;7771;48.478;8.936;2023-05-03T00:41:30;9.63;;;5.60;;
15342;SDS011;7771;48.478;8.936;2023-05-03T00:43:58;9.43;;;5.30;;
15342;SDS011;7771;48.478;8.936;2023-05-03T00:46:24;9.43;;;5.03;;
15342;SDS011;7771;48.478;8.936;2023-05-03T00:48:53;9.23;;;4.70;;
15342;SDS011;7771;48.478;8.936;2023-05-03T00:51:20;6.17;;;4.23;;
15342;SDS011;7771;48.478;8.936;2023-05-03T00:53:48;6.97;;;4.97;;
15342;SDS011;7771;48.478;8.936;2023-05-03T00:56:17;7.23;;;4.47;;
15342;SDS011;7771;48.478;8.936;2023-05-03T00:58:44;6.63;;;4.60;;
15342;SDS011;7771;48.478;8.936;2023-05-03T01:01:10;7.80;;;4.67;;
15342;SDS011;7771;48.478;8.936;2023-05-03T01:03:38;7.50;;;4.73;;
15342;SDS011;7771;48.478;8.936;2023-05-03T01:06:07;9.07;;;5.37;;
15342;SDS011;7771;48.478;8.936;2023-05-03T01:11:29;8.17;;;5.20;;
15342;SDS011;7771;48.478;8.936;2023-05-03T01:14:00;9.37;;;5.40;;
15342;SDS011;7771;48.478;8.936;2023-05-03T01:16:29;11.03;;;5.97;;
15342;SDS011;7771;48.478;8.936;2023-05-03T01:18:57;8.90;;;5.93;;
15342;SDS011;7771;48.478;8.936;2023-05-03T01:21:24;11.40;;;5.30;;
15342;SDS011;7771;48.478;8.936;2023-05-03T01:23:53;9.17;;;5.40;;
15342;SDS011;7771;48.478;8.936;2023-05-03T01:26:33;7.40;;;5.47;;
15342;SDS011;7771;48.478;8.936;2023-05-03T01:29:01;8.30;;;5.60;;
15342;SDS011;7771;48.478;8.936;2023-05-03T01:32:02;8.00;;;5.70;;
15342;SDS011;7771;48.478;8.936;2023-05-03T01:36:58;9.33;;;5.23;;
15342;SDS011;7771;48.478;8.936;2023-05-03T01:39:28;9.33;;;5.30;;
15342;SDS011;7771;48.478;8.936;2023-05-03T01:41:54;8.67;;;5.67;;
15342;SDS011;7771;48.478;8.936;2023-05-03T01:44:20;8.40;;;5.33;;
15342;SDS011;7771;48.478;8.936;2023-05-03T01:46:48;6.07;;;4.83;;
15342;SDS011;7771;48.478;8.936;2023-05-03T01:49:14;7.57;;;5.10;;
15342;SDS011;7771;48.478;8.936;2023-05-03T01:51:42;10.97;;;5.50;;
15342;SDS011;7771;48.478;8.936;2023-05-03T01:54:09;8.77;;;5.13;;
15342;SDS011;7771;48.478;8.936;2023-05-03T01:56:37;9.60;;;5.07;;
15342;SDS011;7771;48.478;8.936;2023-05-03T01:59:04;11.90;;;5.40;;
15342;SDS011;7771;48.478;8.936;2023-05-03T02:01:32;9.60;;;6.40;;
15342;SDS011;7771;48.478;8.936;2023-05-03T02:03:59;10.20;;;5.97;;
15342;SDS011;7771;48.478;8.936;2023-05-03T02:06:27;9.47;;;5.80;;
15342;SDS011;7771;48.478;8.936;2023-05-03T02:08:54;8.57;;;4.50;;
15342;SDS011;7771;48.478;8.936;2023-05-03T02:11:23;12.03;;;7.27;;
15342;SDS011;7771;48.478;8.936;2023-05-03T02:13:49;11.17;;;7.00;;
15342;SDS011;7771;48.478;8.936;2023-05-03T02:16:17;11.70;;;6.00;;
15342;SDS011;7771;48.478;8.936;2023-05-03T02:18:45;11.63;;;5.43;;
15342;SDS011;7771;48.478;8.936;2023-05-03T02:21:11;9.83;;;5.43;;
15342;SDS011;7771;48.478;8.936;2023-05-03T02:23:38;8.23;;;5.27;;
15342;SDS011;7771;48.478;8.936;2023-05-03T02:26:05;12.10;;;6.03;;
15342;SDS011;7771;48.478;8.936;2023-05-03T02:28:32;8.67;;;5.97;;
15342;SDS011;7771;48.478;8.936;2023-05-03T02:30:58;7.27;;;4.93;;
15342;SDS011;7771;48.478;8.936;2023-05-03T02:33:26;8.27;;;4.87;;
15342;SDS011;7771;48.478;8.936;2023-05-03T02:35:54;11.07;;;5.03;;
15342;SDS011;7771;48.478;8.936;2023-05-03T02:38:20;7.57;;;4.97;;
15342;SDS011;7771;48.478;8.936;2023-05-03T02:40:48;6.60;;;4.83;;
15342;SDS011;7771;48.478;8.936;2023-05-03T02:43:14;8.47;;;4.80;;
15342;SDS011;7771;48.478;8.936;2023-05-03T02:45:42;7.27;;;4.57;;
15342;SDS011;7771;48.478;8.936;2023-05-03T02:48:09;9.37;;;5.63;;
15342;SDS011;7771;48.478;8.936;2023-05-03T02:50:37;8.47;;;5.53;;
15342;SDS011;7771;48.478;8.936;2023-05-03T02:53:04;9.37;;;5.97;;
15342;SDS011;7771;48.478;8.936;2023-05-03T02:55:31;9.43;;;5.50;;
15342;SDS011;7771;48.478;8.936;2023-05-03T02:57:59;7.87;;;5.03;;
15342;SDS011;7771;48.478;8.936;2023-05-03T03:00:27;7.87;;;5.13;;
15342;SDS011;7771;48.478;8.936;2023-05-03T03:02:55;10.00;;;4.93;;
15342;SDS011;7771;48.478;8.936;2023-05-03T03:05:21;9.67;;;5.60;;
15342;SDS011;7771;48.478;8.936;2023-05-03T03:07:50;8.17;;;5.37;;
15342;SDS011;7771;48.478;8.936;2023-05-03T03:10:16;8.10;;;5.53;;
15342;SDS011;7771;48.478;8.936;2023-05-03T03:12:44;9.77;;;5.67;;
15342;SDS011;7771;48.478;8.936;2023-05-03T03:15:11;9.83;;;5.47;;
15342;SDS011;7771;48.478;8.936;2023-05-03T03:17:38;7.53;;;5.13;;
15342;SDS011;7771;48.478;8.936;2023-05-03T03:20:06;8.60;;;5.67;;
15342;SDS011;7771;48.478;8.936;2023-05-03T03:22:33;8.37;;;5.57;;
15342;SDS011;7771;48.478;8.936;2023-05-03T03:25:00;7.77;;;5.30;;
15342;SDS011;7771;48.478;8.936;2023-05-03T03:27:27;9.63;;;4.47;;
15342;SDS011;7771;48.478;8.936;2023-05-03T03:29:54;9.47;;;5.27;;
15342;SDS011;7771;48.478;8.936;2023-05-03T03:32:22;8.07;;;4.63;;
15342;SDS011;7771;48.478;8.936;2023-05-03T03:34:48;9.17;;;4.53;;
15342;SDS011;7771;48.478;8.936;2023-05-03T03:37:15;7.03;;;4.90;;
15342;SDS011;7771;48.478;8.936;2023-05-03T03:39:42;7.13;;;5.20;;
15342;SDS011;7771;48.478;8.936;2023-05-03T03:42:10;7.40;;;4.90;;
15342;SDS011;7771;48.478;8.936;2023-05-03T03:44:38;7.63;;;5.27;;
15342;SDS011;7771;48.478;8.936;2023-05-03T03:47:06;6.77;;;5.00;;
15342;SDS011;7771;48.478;8.936;2023-05-03T03:49:32;7.43;;;4.97;;
15342;SDS011;7771;48.478;8.936;2023-05-03T03:52:01;7.47;;;4.77;;
15342;SDS011;7771;48.478;8.936;2023-05-03T03:54:29;7.23;;;4.87;;
15342;SDS011;7771;48.478;8.936;2023-05-03T03:56:57;8.83;;;5.10;;
15342;SDS011;7771;48.478;8.936;2023-05-03T03:59:24;6.57;;;5.27;;
15342;SDS011;7771;48.478;8.936;2023-05-03T04:01:51;7.77;;;5.20;;
15342;SDS011;7771;48.478;8.936;2023-05-03T04:04:17;7.90;;;4.70;;
15342;SDS011;7771;48.478;8.936;2023-05-03T04:06:44;7.40;;;5.13;;
15342;SDS011;7771;48.478;8.936;2023-05-03T04:09:12;7.97;;;5.07;;
15342;SDS011;7771;48.478;8.936;2023-05-03T04:11:39;7.40;;;5.07;;
15342;SDS011;7771;48.478;8.936;2023-05-03T04:14:07;8.00;;;5.43;;
15342;SDS011;7771;48.478;8.936;2023-05-03T04:16:34;8.30;;;5.30;;
15342;SDS011;7771;48.478;8.936;2023-05-03T04:19:02;7.70;;;4.97;;
15342;SDS011;7771;48.478;8.936;2023-05-03T04:21:28;8.23;;;5.40;;
15342;SDS011;7771;48.478;8.936;2023-05-03T04:23:56;7.30;;;4.90;;
15342;SDS011;7771;48.478;8.936;2023-05-03T04:26:23;6.80;;;4.97;;
15342;SDS011;7771;48.478;8.936;2023-05-03T04:28:50;7.10;;;5.00;;
15342;SDS011;7771;48.478;8.936;2023-05-03T04:31:17;10.30;;;5.17;;
15342;SDS011;7771;48.478;8.936;2023-05-03T04:33:44;8.63;;;4.93;;
15342;SDS011;7771;48.478;8.936;2023-05-03T04:36:11;12.97;;;6.27;;
15342;SDS011;7771;48.478;8.936;2023-05-03T04:38:41;8.83;;;6.17;;
15342;SDS011;7771;48.478;8.936;2023-05-03T04:41:08;9.30;;;5.77;;
15342;SDS011;7771;48.478;8.936;2023-05-03T04:43:35;9.23;;;5.77;;
15342;SDS011;7771;48.478;8.936;2023-05-03T04:46:03;7.43;;;4.83;;
15342;SDS011;7771;48.478;8.936;2023-05-03T04:48:30;7.73;;;4.97;;
15342;SDS011;7771;48.478;8.936;2023-05-03T04:50:56;9.63;;;5.73;;
15342;SDS011;7771;48.478;8.936;2023-05-03T04:53:25;8.37;;;5.80;;
15342;SDS011;7771;48.478;8.936;2023-05-03T04:55:53;8.70;;;5.53;;
15342;SDS011;7771;48.478;8.936;2023-05-03T04:58:21;7.77;;;5.50;;
15342;SDS011;7771;48.478;8.936;2023-05-03T05:00:49;9.67;;;5.47;;
15342;SDS011;7771;48.478;8.936;2023-05-03T05:03:15;6.83;;;5.50;;
15342;SDS011;7771;48.478;8.936;2023-05-03T05:05:42;8.87;;;5.90;;
15342;SDS011;7771;48.478;8.936;2023-05-03T05:08:09;7.87;;;5.10;;
15342;SDS011;7771;48.478;8.936;2023-05-03T05:10:39;8.40;;;5.57;;
15342;SDS011;7771;48.478;8.936;2023-05-03T05:13:05;8.17;;;5.00;;
15342;SDS011;7771;48.478;8.936;2023-05-03T05:15:32;10.20;;;5.70;;
15342;SDS011;7771;48.478;8.936;2023-05-03T05:18:00;8.57;;;5.17;;
15342;SDS011;7771;48.478;8.936;2023-05-03T05:20:26;7.50;;;4.80;;
15342;SDS011;7771;48.478;8.936;2023-05-03T05:22:54;10.30;;;6.13;;
15342;SDS011;7771;48.478;8.936;2023-05-03T05:25:20;10.17;;;6.20;;
15342;SDS011;7771;48.478;8.936;2023-05-03T05:27:48;6.83;;;5.40;;
15342;SDS011;7771;48.478;8.936;2023-05-03T05:30:16;7.30;;;5.27;;
15342;SDS011;7771;48.478;8.936;2023-05-03T05:32:42;8.30;;;5.13;;
15342;SDS011;7771;48.478;8.936;2023-05-03T05:35:09;7.47;;;5.67;;
15342;SDS011;7771;48.478;8.936;2023-05-03T05:37:36;7.87;;;5.17;;
15342;SDS011;7771;48.478;8.936;2023-05-03T05:40:05;9.67;;;5.80;;
15342;SDS011;7771;48.478;8.936;2023-05-03T05:42:33;8.93;;;5.97;;
15342;SDS011;7771;48.478;8.936;2023-05-03T05:45:01;9.30;;;5.57;;
15342;SDS011;7771;48.478;8.936;2023-05-03T05:47:27;11.03;;;5.57;;
15342;SDS011;7771;48.478;8.936;2023-05-03T05:49:55;9.53;;;5.93;;
15342;SDS011;7771;48.478;8.936;2023-05-03T05:52:21;10.40;;;6.50;;
15342;SDS011;7771;48.478;8.936;2023-05-03T05:54:48;9.17;;;5.70;;
15342;SDS011;7771;48.478;8.936;2023-05-03T05:57:15;10.63;;;6.03;;
15342;SDS011;7771;48.478;8.936;2023-05-03T05:59:42;9.53;;;6.00;;
15342;SDS011;7771;48.478;8.936;2023-05-03T06:02:11;10.27;;;6.90;;
15342;SDS011;7771;48.478;8.936;2023-05-03T06:04:35;11.53;;;9.27;;
15342;SDS011;7771;48.478;8.936;2023-05-03T06:07:03;11.63;;;6.93;;
15342;SDS011;7771;48.478;8.936;2023-05-03T06:09:30;11.60;;;7.17;;
15342;SDS011;7771;48.478;8.936;2023-05-03T06:11:58;13.33;;;6.97;;
15342;SDS011;7771;48.478;8.936;2023-05-03T06:14:25;12.03;;;7.07;;
15342;SDS011;7771;48.478;8.936;2023-05-03T06:16:52;10.17;;;7.07;;
15342;SDS011;7771;48.478;8.936;2023-05-03T06:19:18;10.70;;;7.03;;
15342;SDS011;7771;48.478;8.936;2023-05-03T06:21:47;10.80;;;7.80;;
15342;SDS011;7771;48.478;8.936;2023-05-03T06:24:13;11.23;;;7.00;;
15342;SDS011;7771;48.478;8.936;2023-05-03T06:26:40;8.77;;;6.40;;
15342;SDS011;7771;48.478;8.936;2023-05-03T06:29:07;10.10;;;7.13;;
15342;SDS011;7771;48.478;8.936;2023-05-03T06:31:33;9.67;;;6.73;;
15342;SDS011;7771;48.478;8.936;2023-05-03T06:34:02;14.00;;;7.63;;
15342;SDS011;7771;48.478;8.936;2023-05-03T06:36:28;10.33;;;6.87;;
15342;SDS011;7771;48.478;8.936;2023-05-03T06:38:55;10.47;;;7.37;;
15342;SDS011;7771;48.478;8.936;2023-05-03T06:44:07;10.50;;;7.90;;
15342;SDS011;7771;48.478;8.936;2023-05-03T06:46:35;10.10;;;7.50;;
15342;SDS011;7771;48.478;8.936;2023-05-03T06:49:03;12.53;;;8.63;;
15342;SDS011;7771;48.478;8.936;2023-05-03T06:51:31;11.33;;;8.07;;
15342;SDS011;7771;48.478;8.936;2023-05-03T06:53:58;12.00;;;8.40;;
15342;SDS011;7771;48.478;8.936;2023-05-03T06:56:25;13.43;;;8.77;;
15342;SDS011;7771;48.478;8.936;2023-05-03T06:58:54;12.90;;;8.80;;
15342;SDS011;7771;48.478;8.936;2023-05-03T07:01:21;11.13;;;8.43;;
15342;SDS011;7771;48.478;8.936;2023-05-03T07:03:48;13.90;;;9.07;;
15342;SDS011;7771;48.478;8.936;2023-05-03T07:06:15;14.40;;;10.07;;
15342;SDS011;7771;48.478;8.936;2023-05-03T07:08:43;12.43;;;9.23;;
15342;SDS011;7771;48.478;8.936;2023-05-03T07:11:10;15.07;;;9.60;;
15342;SDS011;7771;48.478;8.936;2023-05-03T07:13:36;17.43;;;11.00;;
15342;SDS011;7771;48.478;8.936;2023-05-03T07:16:04;13.93;;;9.50;;
15342;SDS011;7771;48.478;8.936;2023-05-03T07:18:31;12.53;;;8.93;;
15342;SDS011;7771;48.478;8.936;2023-05-03T07:20:59;13.57;;;9.77;;
15342;SDS011;7771;48.478;8.936;2023-05-03T07:23:27;11.90;;;9.57;;
15342;SDS011;7771;48.478;8.936;2023-05-03T07:25:55;14.40;;;10.30;;
15342;SDS011;7771;48.478;8.936;2023-05-03T07:28:22;12.70;;;9.67;;
15342;SDS011;7771;48.478;8.936;2023-05-03T07:30:51;14.13;;;10.30;;
15342;SDS011;7771;48.478;8.936;2023-05-03T07:33:17;16.67;;;11.07;;
15342;SDS011;7771;48.478;8.936;2023-05-03T07:35:45;16.97;;;10.27;;
15342;SDS011;7771;48.478;8.936;2023-05-03T07:38:13;16.40;;;12.03;;
15342;SDS011;7771;48.478;8.936;2023-05-03T07:40:40;11.53;;;9.63;;
15342;SDS011;7771;48.478;8.936;2023-05-03T07:43:08;12.30;;;9.37;;
15342;SDS011;7771;48.478;8.936;2023-05-03T07:45:35;15.63;;;10.10;;
15342;SDS011;7771;48.478;8.936;2023-05-03T07:48:04;14.03;;;10.13;;
15342;SDS011;7771;48.478;8.936;2023-05-03T07:50:31;12.60;;;9.60;;
15342;SDS011;7771;48.478;8.936;2023-05-03T07:52:58;11.60;;;9.13;;
15342;SDS011;7771;48.478;8.936;2023-05-03T07:55:25;13.67;;;9.40;;
15342;SDS011;7771;48.478;8.936;2023-05-03T07:57:54;12.10;;;9.77;;
15342;SDS011;7771;48.478;8.936;2023-05-03T08:00:20;12.40;;;9.77;;
15342;SDS011;7771;48.478;8.936;2023-05-03T08:02:48;12.70;;;10.07;;
15342;SDS011;7771;48.478;8.936;2023-05-03T08:05:16;12.87;;;9.60;;
15342;SDS011;7771;48.478;8.936;2023-05-03T08:07:42;14.23;;;10.13;;
15342;SDS011;7771;48.478;8.936;2023-05-03T08:10:11;14.40;;;9.97;;
15342;SDS011;7771;48.478;8.936;2023-05-03T08:12:38;14.70;;;10.47;;
15342;SDS011;7771;48.478;8.936;2023-05-03T08:15:05;16.90;;;10.17;;
15342;SDS011;7771;48.478;8.936;2023-05-03T08:17:38;15.23;;;10.13;;
15342;SDS011;7771;48.478;8.936;2023-05-03T08:20:11;12.87;;;10.20;;
15342;SDS011;7771;48.478;8.936;2023-05-03T08:22:39;13.37;;;10.43;;
15342;SDS011;7771;48.478;8.936;2023-05-03T08:25:05;13.93;;;10.73;;
15342;SDS011;7771;48.478;8.936;2023-05-03T08:27:33;12.67;;;10.10;;
15342;SDS011;7771;48.478;8.936;2023-05-03T08:30:01;13.73;;;10.13;;
15342;SDS011;7771;48.478;8.936;2023-05-03T08:32:29;11.70;;;10.27;;
15342;SDS011;7771;48.478;8.936;2023-05-03T08:34:57;12.47;;;9.73;;
15342;SDS011;7771;48.478;8.936;2023-05-03T08:37:24;14.67;;;10.97;;
15342;SDS011;7771;48.478;8.936;2023-05-03T08:39:51;11.70;;;9.83;;
15342;SDS011;7771;48.478;8.936;2023-05-03T08:42:18;13.37;;;10.33;;
15342;SDS011;7771;48.478;8.936;2023-05-03T08:44:46;14.07;;;10.97;;
15342;SDS011;7771;48.478;8.936;2023-05-03T08:47:15;14.40;;;10.17;;
15342;SDS011;7771;48.478;8.936;2023-05-03T08:49:42;16.10;;;10.40;;
15342;SDS011;7771;48.478;8.936;2023-05-03T08:52:10;11.70;;;9.77;;
15342;SDS011;7771;48.478;8.936;2023-05-03T08:54:37;12.83;;;10.40;;
15342;SDS011;7771;48.478;8.936;2023-05-03T08:57:07;12.10;;;8.60;;
15342;SDS011;7771;48.478;8.936;2023-05-03T08:59:31;12.27;;;10.27;;
15342;SDS011;7771;48.478;8.936;2023-05-03T09:01:58;12.18;;;9.63;;
15342;SDS011;7771;48.478;8.936;2023-05-03T09:04:31;11.80;;;10.10;;
15342;SDS011;7771;48.478;8.936;2023-05-03T09:09:32;11.23;;;9.40;;
15342;SDS011;7771;48.478;8.936;2023-05-03T09:11:59;11.38;;;9.35;;
15342;SDS011;7771;48.478;8.936;2023-05-03T09:14:25;10.68;;;9.50;;
15342;SDS011;7771;48.478;8.936;2023-05-03T09:16:53;10.20;;;9.05;;
15342;SDS011;7771;48.478;8.936;2023-05-03T09:19:19;13.38;;;9.57;;
15342;SDS011;7771;48.478;8.936;2023-05-03T09:21:47;11.20;;;9.98;;
15342;SDS011;7771;48.478;8.936;2023-05-03T09:24:15;11.48;;;9.32;;
15342;SDS011;7771;48.478;8.936;2023-05-03T09:26:49;13.30;;;9.80;;
15342;SDS011;7771;48.478;8.936;2023-05-03T09:31:58;9.85;;;8.93;;
15342;SDS011;7771;48.478;8.936;2023-05-03T09:34:24;10.70;;;9.60;;
15342;SDS011;7771;48.478;8.936;2023-05-03T09:36:51;9.65;;;8.52;;
15342;SDS011;7771;48.478;8.936;2023-05-03T09:39:18;10.32;;;8.82;;
15342;SDS011;7771;48.478;8.936;2023-05-03T09:41:45;9.45;;;8.07;;
15342;SDS011;7771;48.478;8.936;2023-05-03T09:44:12;12.05;;;8.85;;
15342;SDS011;7771;48.478;8.936;2023-05-03T09:46:39;10.02;;;9.02;;
15342;SDS011;7771;48.478;8.936;2023-05-03T09:49:06;9.77;;;8.70;;
15342;SDS011;7771;48.478;8.936;2023-05-03T09:51:32;11.93;;;10.43;;
15342;SDS011;7771;48.478;8.936;2023-05-03T09:54:01;13.55;;;12.15;;
15342;SDS011;7771;48.478;8.936;2023-05-03T09:56:28;9.70;;;8.70;;
15342;SDS011;7771;48.478;8.936;2023-05-03T09:58:56;10.18;;;8.60;;
15342;SDS011;7771;48.478;8.936;2023-05-03T10:01:23;9.77;;;8.18;;
15342;SDS011;7771;48.478;8.936;2023-05-03T10:03:50;9.10;;;7.85;;
15342;SDS011;7771;48.478;8.936;2023-05-03T10:06:25;9.18;;;8.00;;
15342;SDS011;7771;48.478;8.936;2023-05-03T10:09:15;8.13;;;7.32;;
15342;SDS011;7771;48.478;8.936;2023-05-03T10:11:47;9.32;;;7.57;;
15342;SDS011;7771;48.478;8.936;2023-05-03T10:14:13;7.93;;;7.20;;
15342;SDS011;7771;48.478;8.936;2023-05-03T10:16:43;8.48;;;7.57;;
15342;SDS011;7771;48.478;8.936;2023-05-03T10:19:13;8.35;;;7.50;;
15342;SDS011;7771;48.478;8.936;2023-05-03T10:21:46;9.60;;;7.55;;
15342;SDS011;7771;48.478;8.936;2023-05-03T10:24:14;7.68;;;6.90;;
15342;SDS011;7771;48.478;8.936;2023-05-03T10:26:43;8.40;;;6.68;;
15342;SDS011;7771;48.478;8.936;2023-05-03T10:31:48;8.80;;;6.45;;
15342;SDS011;7771;48.478;8.936;2023-05-03T10:34:19;9.55;;;8.50;;
15342;SDS011;7771;48.478;8.936;2023-05-03T10:36:46;9.18;;;8.10;;
15342;SDS011;7771;48.478;8.936;2023-05-03T10:39:13;8.60;;;7.75;;
15342;SDS011;7771;48.478;8.936;2023-05-03T10:41:39;9.60;;;8.45;;
15342;SDS011;7771;48.478;8.936;2023-05-03T10:46:44;7.93;;;6.75;;
15342;SDS011;7771;48.478;8.936;2023-05-03T10:49:16;7.53;;;6.37;;
15342;SDS011;7771;48.478;8.936;2023-05-03T10:51:42;8.02;;;6.07;;
15342;SDS011;7771;48.478;8.936;2023-05-03T10:54:09;6.28;;;5.53;;
15342;SDS011;7771;48.478;8.936;2023-05-03T10:59:12;8.18;;;6.15;;
15342;SDS011;7771;48.478;8.936;2023-05-03T11:01:40;6.65;;;6.00;;
15342;SDS011;7771;48.478;8.936;2023-05-03T11:04:09;7.45;;;6.57;;
15342;SDS011;7771;48.478;8.936;2023-05-03T11:06:37;6.75;;;6.07;;
15342;SDS011;7771;48.478;8.936;2023-05-03T11:09:06;8.85;;;6.60;;
15342;SDS011;7771;48.478;8.936;2023-05-03T11:11:32;7.97;;;6.03;;
15342;SDS011;7771;48.478;8.936;2023-05-03T11:13:59;7.62;;;6.18;;
15342;SDS011;7771;48.478;8.936;2023-05-03T11:16:27;7.12;;;6.12;;
15342;SDS011;7771;48.478;8.936;2023-05-03T11:18:55;6.32;;;5.72;;
15342;SDS011;7771;48.478;8.936;2023-05-03T11:21:22;6.93;;;6.28;;
15342;SDS011;7771;48.478;8.936;2023-05-03T11:23:48;6.78;;;6.07;;
15342;SDS011;7771;48.478;8.936;2023-05-03T11:26:15;7.10;;;6.40;;
15342;SDS011;7771;48.478;8.936;2023-05-03T11:28:42;7.70;;;6.90;;
15342;SDS011;7771;48.478;8.936;2023-05-03T11:31:10;9.27;;;7.65;;
15342;SDS011;7771;48.478;8.936;2023-05-03T11:33:37;6.20;;;5.60;;
15342;SDS011;7771;48.478;8.936;2023-05-03T11:36:04;6.37;;;5.45;;
15342;SDS011;7771;48.478;8.936;2023-05-03T11:38:32;6.25;;;5.65;;
15342;SDS011;7771;48.478;8.936;2023-05-03T11:41:00;6.30;;;5.53;;
15342;SDS011;7771;48.478;8.936;2023-05-03T11:43:28;6.22;;;5.30;;
15342;SDS011;7771;48.478;8.936;2023-05-03T11:45:56;6.43;;;5.60;;
15342;SDS011;7771;48.478;8.936;2023-05-03T11:48:22;6.22;;;5.57;;
15342;SDS011;7771;48.478;8.936;2023-05-03T11:50:49;6.60;;;5.90;;
15342;SDS011;7771;48.478;8.936;2023-05-03T11:53:17;6.82;;;4.90;;
15342;SDS011;7771;48.478;8.936;2023-05-03T11:55:44;7.32;;;6.30;;
15342;SDS011;7771;48.478;8.936;2023-05-03T11:58:13;4.95;;;4.45;;
15342;SDS011;7771;48.478;8.936;2023-05-03T12:00:42;6.93;;;5.72;;
15342;SDS011;7771;48.478;8.936;2023-05-03T12:03:08;6.47;;;4.95;;
15342;SDS011;7771;48.478;8.936;2023-05-03T12:05:35;6.10;;;5.47;;
15342;SDS011;7771;48.478;8.936;2023-05-03T12:08:01;6.57;;;5.50;;
15342;SDS011;7771;48.478;8.936;2023-05-03T12:10:30;6.43;;;5.25;;
15342;SDS011;7771;48.478;8.936;2023-05-03T12:12:57;5.68;;;4.93;;
15342;SDS011;7771;48.478;8.936;2023-05-03T12:15:26;6.15;;;5.22;;
15342;SDS011;7771;48.478;8.936;2023-05-03T12:17:54;5.50;;;5.00;;
15342;SDS011;7771;48.478;8.936;2023-05-03T12:20:19;5.60;;;4.93;;
15342;SDS011;7771;48.478;8.936;2023-05-03T12:22:49;6.72;;;5.00;;
15342;SDS011;7771;48.478;8.936;2023-05-03T12:25:16;5.80;;;4.93;;
15342;SDS011;7771;48.478;8.936;2023-05-03T12:27:44;6.15;;;5.30;;
15342;SDS011;7771;48.478;8.936;2023-05-03T12:30:11;5.75;;;4.72;;
15342;SDS011;7771;48.478;8.936;2023-05-03T12:32:38;7.18;;;5.47;;
15342;SDS011;7771;48.478;8.936;2023-05-03T12:35:06;5.97;;;5.43;;
15342;SDS011;7771;48.478;8.936;2023-05-03T12:37:34;5.82;;;4.82;;
15342;SDS011;7771;48.478;8.936;2023-05-03T12:40:01;5.20;;;4.65;;
15342;SDS011;7771;48.478;8.936;2023-05-03T12:42:27;5.20;;;4.57;;
15342;SDS011;7771;48.478;8.936;2023-05-03T12:44:58;5.00;;;4.60;;
15342;SDS011;7771;48.478;8.936;2023-05-03T12:47:26;5.50;;;4.90;;
15342;SDS011;7771;48.478;8.936;2023-05-03T12:49:54;6.43;;;4.65;;
15342;SDS011;7771;48.478;8.936;2023-05-03T12:52:21;6.05;;;5.45;;
15342;SDS011;7771;48.478;8.936;2023-05-03T12:54:50;5.25;;;4.60;;
15342;SDS011;7771;48.478;8.936;2023-05-03T12:57:16;5.53;;;4.15;;
15342;SDS011;7771;48.478;8.936;2023-05-03T12:59:45;5.70;;;4.70;;
15342;SDS011;7771;48.478;8.936;2023-05-03T13:02:11;4.97;;;4.37;;
15342;SDS011;7771;48.478;8.936;2023-05-03T13:04:39;7.00;;;4.07;;
15342;SDS011;7771;48.478;8.936;2023-05-03T13:07:06;6.12;;;4.80;;
15342;SDS011;7771;48.478;8.936;2023-05-03T13:09:32;6.37;;;4.57;;
15342;SDS011;7771;48.478;8.936;2023-05-03T13:12:00;6.93;;;4.60;;
15342;SDS011;7771;48.478;8.936;2023-05-03T13:14:29;4.82;;;4.22;;
15342;SDS011;7771;48.478;8.936;2023-05-03T13:16:56;5.30;;;4.80;;
15342;SDS011;7771;48.478;8.936;2023-05-03T13:19:24;7.22;;;4.70;;
15342;SDS011;7771;48.478;8.936;2023-05-03T13:21:51;4.60;;;4.18;;
15342;SDS011;7771;48.478;8.936;2023-05-03T13:24:19;5.00;;;4.53;;
15342;SDS011;7771;48.478;8.936;2023-05-03T13:26:45;7.30;;;4.05;;
15342;SDS011;7771;48.478;8.936;2023-05-03T13:29:13;4.35;;;3.95;;
15342;SDS011;7771;48.478;8.936;2023-05-03T13:31:41;5.68;;;4.10;;
15342;SDS011;7771;48.478;8.936;2023-05-03T13:34:08;5.20;;;3.92;;
15342;SDS011;7771;48.478;8.936;2023-05-03T13:36:37;4.82;;;4.30;;
15342;SDS011;7771;48.478;8.936;2023-05-03T13:39:05;7.07;;;3.92;;
15342;SDS011;7771;48.478;8.936;2023-05-03T13:41:32;3.65;;;3.35;;
15342;SDS011;7771;48.478;8.936;2023-05-03T13:43:58;4.87;;;3.85;;
15342;SDS011;7771;48.478;8.936;2023-05-03T13:46:25;4.95;;;3.92;;
15342;SDS011;7771;48.478;8.936;2023-05-03T13:48:53;3.90;;;3.50;;
15342;SDS011;7771;48.478;8.936;2023-05-03T13:51:19;4.28;;;3.40;;
15342;SDS011;7771;48.478;8.936;2023-05-03T13:53:46;3.72;;;3.42;;
15342;SDS011;7771;48.478;8.936;2023-05-03T13:56:14;3.67;;;3.22;;
15342;SDS011;7771;48.478;8.936;2023-05-03T13:58:42;6.05;;;4.07;;
15342;SDS011;7771;48.478;8.936;2023-05-03T14:01:10;4.07;;;3.33;;
15342;SDS011;7771;48.478;8.936;2023-05-03T14:03:36;3.97;;;3.58;;
15342;SDS011;7771;48.478;8.936;2023-05-03T14:06:04;5.43;;;3.30;;
15342;SDS011;7771;48.478;8.936;2023-05-03T14:08:30;4.43;;;3.25;;
15342;SDS011;7771;48.478;8.936;2023-05-03T14:10:58;6.28;;;3.42;;
15342;SDS011;7771;48.478;8.936;2023-05-03T14:13:27;5.62;;;3.72;;
15342;SDS011;7771;48.478;8.936;2023-05-03T14:15:52;4.80;;;3.90;;
15342;SDS011;7771;48.478;8.936;2023-05-03T14:18:21;3.47;;;3.17;;
15342;SDS011;7771;48.478;8.936;2023-05-03T14:20:47;4.25;;;3.60;;
15342;SDS011;7771;48.478;8.936;2023-05-03T14:23:16;4.62;;;3.60;;
15342;SDS011;7771;48.478;8.936;2023-05-03T14:25:44;3.75;;;3.45;;
15342;SDS011;7771;48.478;8.936;2023-05-03T14:28:13;4.82;;;3.60;;
15342;SDS011;7771;48.478;8.936;2023-05-03T14:30:41;3.70;;;3.30;;
15342;SDS011;7771;48.478;8.936;2023-05-03T14:33:07;3.60;;;3.30;;
15342;SDS011;7771;48.478;8.936;2023-05-03T14:35:36;3.58;;;3.28;;
15342;SDS011;7771;48.478;8.936;2023-05-03T14:38:02;4.43;;;3.50;;
15342;SDS011;7771;48.478;8.936;2023-05-03T14:40:29;4.30;;;3.28;;
15342;SDS011;7771;48.478;8.936;2023-05-03T14:42:56;4.20;;;3.80;;
15342;SDS011;7771;48.478;8.936;2023-05-03T14:45:22;4.07;;;3.35;;
15342;SDS011;7771;48.478;8.936;2023-05-03T14:47:49;4.28;;;3.87;;
15342;SDS011;7771;48.478;8.936;2023-05-03T14:50:16;3.78;;;3.37;;
15342;SDS011;7771;48.478;8.936;2023-05-03T14:52:42;3.55;;;3.00;;
15342;SDS011;7771;48.478;8.936;2023-05-03T14:55:09;3.70;;;3.37;;
15342;SDS011;7771;48.478;8.936;2023-05-03T14:57:36;4.55;;;2.83;;
15342;SDS011;7771;48.478;8.936;2023-05-03T15:00:05;5.18;;;3.33;;
15342;SDS011;7771;48.478;8.936;2023-05-03T15:02:32;7.05;;;3.60;;
15342;SDS011;7771;48.478;8.936;2023-05-03T15:04:59;5.43;;;3.40;;
15342;SDS011;7771;48.478;8.936;2023-05-03T15:07:26;4.50;;;4.07;;
15342;SDS011;7771;48.478;8.936;2023-05-03T15:09:54;3.58;;;3.03;;
15342;SDS011;7771;48.478;8.936;2023-05-03T15:12:20;4.12;;;3.30;;
15342;SDS011;7771;48.478;8.936;2023-05-03T15:14:47;3.30;;;3.00;;
15342;SDS011;7771;48.478;8.936;2023-05-03T15:17:14;3.60;;;3.30;;
15342;SDS011;7771;48.478;8.936;2023-05-03T15:19:43;4.12;;;3.70;;